createdAt,value
2023-03-06T00:02:19.215Z,73.80
2023-03-06T00:04:50.243Z,71.00
2023-03-06T00:07:20.904Z,58.55
2023-03-06T00:09:52.192Z,55.90
2023-03-06T00:12:22.846Z,55.15
2023-03-06T00:14:55.540Z,59.03
2023-03-06T00:17:26.407Z,66.30
2023-03-06T00:19:57.846Z,102.53
2023-03-06T00:22:28.423Z,114.15
2023-03-06T00:24:59.938Z,94.82
2023-03-06T00:27:32.175Z,84.28
2023-03-06T00:30:08.261Z,104.28
2023-03-06T00:32:39.061Z,102.93
2023-03-06T00:35:11.485Z,84.40
2023-03-06T00:37:42.821Z,73.75
2023-03-06T00:40:17.405Z,73.55
2023-03-06T00:42:48.779Z,62.38
2023-03-06T00:45:22.014Z,72.00
2023-03-06T00:47:52.667Z,95.10
2023-03-06T00:50:23.930Z,100.90
2023-03-06T00:52:54.750Z,68.38
2023-03-06T00:55:25.875Z,72.65
2023-03-06T00:57:56.501Z,53.30
2023-03-06T01:00:29.223Z,59.72
2023-03-06T01:03:00.078Z,51.92
2023-03-06T01:05:31.858Z,54.05
2023-03-06T01:08:03.454Z,64.20
2023-03-06T01:10:35.221Z,51.95
2023-03-06T01:13:05.847Z,55.15
2023-03-06T01:15:38.885Z,44.58
2023-03-06T01:18:09.526Z,49.42
2023-03-06T01:20:40.838Z,53.20
2023-03-06T01:23:11.805Z,47.92
2023-03-06T01:25:43.133Z,41.22
2023-03-06T01:28:13.764Z,45.30
2023-03-06T01:30:46.349Z,51.20
2023-03-06T01:33:17.288Z,56.95
2023-03-06T01:35:48.489Z,53.50
2023-03-06T01:38:19.448Z,58.33
2023-03-06T01:40:50.434Z,48.60
2023-03-06T01:43:35.416Z,48.65
2023-03-06T01:46:42.411Z,44.00
2023-03-06T01:49:22.165Z,42.38
2023-03-06T01:51:58.644Z,44.67
2023-03-06T01:54:34.086Z,38.47
2023-03-06T01:57:10.174Z,38.78
2023-03-06T01:59:47.082Z,36.42
2023-03-06T02:02:19.616Z,37.95
2023-03-06T02:04:50.838Z,37.58
2023-03-06T02:07:24.246Z,40.47
2023-03-06T02:09:55.214Z,40.45
2023-03-06T02:14:59.448Z,45.97
2023-03-06T02:17:35.714Z,43.25
2023-03-06T02:20:15.366Z,43.08
2023-03-06T02:22:52.376Z,47.33
2023-03-06T02:25:36.363Z,48.03
2023-03-06T02:28:11.198Z,41.53
2023-03-06T02:30:46.971Z,41.75
2023-03-06T02:33:21.810Z,41.58
2023-03-06T02:35:55.437Z,37.15
2023-03-06T02:38:31.540Z,43.85
2023-03-06T02:41:06.470Z,53.72
2023-03-06T02:43:40.448Z,57.60
2023-03-06T02:46:11.289Z,51.97
2023-03-06T02:48:42.323Z,52.17
2023-03-06T02:51:13.041Z,44.80
2023-03-06T02:53:47.749Z,34.92
2023-03-06T02:56:20.454Z,43.45
2023-03-06T02:58:52.215Z,46.17
2023-03-06T03:01:23.641Z,46.50
2023-03-06T03:03:55.179Z,42.08
2023-03-06T03:06:26.523Z,40.00
2023-03-06T03:08:57.931Z,61.83
2023-03-06T03:11:30.571Z,67.60
2023-03-06T03:14:02.046Z,53.20
2023-03-06T03:16:33.074Z,48.75
2023-03-06T03:19:04.375Z,35.97
2023-03-06T03:21:36.687Z,43.05
2023-03-06T03:24:09.463Z,35.58
2023-03-06T03:26:41.870Z,32.63
2023-03-06T03:29:18.133Z,52.45
2023-03-06T03:31:49.467Z,45.45
2023-03-06T03:34:20.547Z,48.60
2023-03-06T03:36:51.862Z,43.50
2023-03-06T03:39:23.124Z,54.38
2023-03-06T03:41:55.721Z,66.18
2023-03-06T03:44:27.368Z,69.85
2023-03-06T03:46:59.137Z,56.47
2023-03-06T03:49:30.269Z,71.32
2023-03-06T03:52:02.704Z,54.55
2023-03-06T03:54:37.305Z,71.15
2023-03-06T03:57:09.910Z,60.92
2023-03-06T03:59:45.268Z,67.32
2023-03-06T04:02:26.384Z,60.13
2023-03-06T04:05:20.618Z,48.10
2023-03-06T04:07:52.505Z,58.10
2023-03-06T04:10:24.740Z,53.50
2023-03-06T04:12:57.145Z,47.78
2023-03-06T04:15:29.674Z,58.95
2023-03-06T04:18:00.786Z,50.90
2023-03-06T04:20:33.776Z,52.30
2023-03-06T04:23:05.435Z,50.55
2023-03-06T04:25:37.135Z,57.65
2023-03-06T04:28:12.512Z,57.33
2023-03-06T04:30:44.142Z,42.72
2023-03-06T04:33:15.259Z,48.17
2023-03-06T04:35:47.694Z,43.97
2023-03-06T04:38:23.961Z,67.82
2023-03-06T04:40:55.591Z,58.28
2023-03-06T04:43:28.074Z,51.70
2023-03-06T04:46:00.593Z,38.55
2023-03-06T04:48:31.543Z,41.80
2023-03-06T04:51:02.763Z,28.10
2023-03-06T04:53:33.812Z,37.17
2023-03-06T04:56:05.334Z,29.77
2023-03-06T04:58:38.045Z,38.42
2023-03-06T05:01:09.335Z,45.13
2023-03-06T05:03:41.121Z,52.95
2023-03-06T05:06:12.345Z,33.45
2023-03-06T05:08:43.074Z,28.73
2023-03-06T05:11:14.354Z,35.10
2023-03-06T05:13:46.795Z,39.38
2023-03-06T05:16:18.243Z,43.92
2023-03-06T05:18:50.677Z,33.53
2023-03-06T05:21:22.057Z,37.72
2023-03-06T05:23:54.564Z,36.92
2023-03-06T05:26:26.630Z,31.83
2023-03-06T05:28:59.441Z,28.98
2023-03-06T05:31:31.077Z,31.85
2023-03-06T05:34:03.900Z,26.10
2023-03-06T05:36:35.527Z,31.10
2023-03-06T05:39:08.094Z,28.95
2023-03-06T05:41:39.534Z,37.80
2023-03-06T05:44:12.274Z,28.77
2023-03-06T05:49:14.632Z,17.45
2023-03-06T05:51:46.078Z,26.10
2023-03-06T05:54:17.513Z,23.00
2023-03-06T05:56:49.023Z,27.90
2023-03-06T05:59:21.410Z,22.58
2023-03-06T06:01:52.682Z,36.83
2023-03-06T06:04:24.123Z,32.13
2023-03-06T06:06:57.718Z,27.80
2023-03-06T06:09:29.474Z,33.30
2023-03-06T06:12:03.788Z,26.55
2023-03-06T06:14:37.338Z,31.95
2023-03-06T06:17:08.754Z,38.63
2023-03-06T06:19:40.943Z,28.27
2023-03-06T06:22:12.524Z,27.52
2023-03-06T06:24:43.769Z,26.67
2023-03-06T06:27:15.210Z,26.85
2023-03-06T06:29:47.681Z,30.52
2023-03-06T06:32:19.053Z,22.15
2023-03-06T06:34:50.143Z,23.58
2023-03-06T06:37:21.612Z,24.70
2023-03-06T06:39:52.679Z,18.10
2023-03-06T06:42:33.203Z,24.38
2023-03-06T06:45:12.413Z,24.58
2023-03-06T06:47:44.711Z,16.77
2023-03-06T06:50:16.211Z,23.98
2023-03-06T06:52:47.663Z,23.63
2023-03-06T06:55:18.903Z,29.25
2023-03-06T06:57:50.382Z,23.65
2023-03-06T07:00:24.573Z,22.38
2023-03-06T07:02:55.701Z,15.55
2023-03-06T07:05:26.636Z,14.98
2023-03-06T07:07:58.055Z,14.70
2023-03-06T07:10:29.116Z,20.08
2023-03-06T07:13:00.493Z,17.40
2023-03-06T07:15:33.804Z,16.35
2023-03-06T07:18:05.087Z,15.82
2023-03-06T07:20:36.172Z,14.63
2023-03-06T07:23:10.101Z,17.92
2023-03-06T07:25:41.022Z,14.43
2023-03-06T07:28:12.694Z,7.38
2023-03-06T07:30:45.583Z,20.80
2023-03-06T07:33:17.964Z,22.27
2023-03-06T07:35:49.142Z,20.27
2023-03-06T07:38:20.411Z,25.38
2023-03-06T07:40:53.787Z,24.95
2023-03-06T07:43:24.954Z,18.95
2023-03-06T07:46:06.657Z,22.83
2023-03-06T07:48:38.730Z,19.92
2023-03-06T07:51:14.864Z,12.63
2023-03-06T07:53:46.518Z,14.23
2023-03-06T07:56:18.065Z,13.38
2023-03-06T07:58:49.751Z,16.20
2023-03-06T08:01:24.821Z,16.13
2023-03-06T08:03:56.512Z,18.25
2023-03-06T08:06:29.166Z,22.83
2023-03-06T08:09:00.681Z,19.67
2023-03-06T08:11:33.341Z,24.35
2023-03-06T08:14:04.665Z,22.88
2023-03-06T08:16:37.464Z,18.48
2023-03-06T08:19:09.221Z,20.52
2023-03-06T08:21:40.301Z,18.27
2023-03-06T08:24:13.335Z,21.83
2023-03-06T08:26:44.581Z,20.00
2023-03-06T08:29:16.389Z,21.02
2023-03-06T08:31:48.951Z,20.92
2023-03-06T08:34:24.437Z,23.10
2023-03-06T08:36:55.525Z,22.73
2023-03-06T08:39:26.924Z,23.38
2023-03-06T08:41:57.837Z,22.35
2023-03-06T08:44:29.078Z,24.77
2023-03-06T08:47:01.591Z,23.17
2023-03-06T08:49:33.138Z,31.83
2023-03-06T08:52:04.079Z,26.67
2023-03-06T08:54:36.764Z,29.75
2023-03-06T08:57:09.293Z,30.77
2023-03-06T08:59:42.193Z,26.70
2023-03-06T09:02:16.528Z,26.33
2023-03-06T09:04:47.671Z,18.67
2023-03-06T09:07:18.425Z,23.27
2023-03-06T09:09:49.719Z,23.95
2023-03-06T09:12:20.806Z,30.58
2023-03-06T09:14:52.115Z,30.70
2023-03-06T09:17:24.696Z,30.50
2023-03-06T09:19:55.968Z,26.40
2023-03-06T09:22:26.968Z,27.55
2023-03-06T09:24:58.305Z,32.22
2023-03-06T09:27:29.563Z,25.88
2023-03-06T09:30:00.721Z,29.02
2023-03-06T09:32:33.454Z,26.30
2023-03-06T09:35:04.744Z,28.30
2023-03-06T09:37:35.675Z,24.00
2023-03-06T09:40:08.083Z,11.75
2023-03-06T09:42:39.095Z,12.48
2023-03-06T09:45:14.711Z,11.63
2023-03-06T09:47:59.780Z,10.02
2023-03-06T09:50:39.800Z,17.17
2023-03-06T09:53:38.614Z,20.63
2023-03-06T09:56:21.935Z,13.77
2023-03-06T09:59:00.817Z,20.67
2023-03-06T10:01:37.003Z,10.60
2023-03-06T10:04:26.362Z,8.10
2023-03-06T10:07:02.715Z,10.68
2023-03-06T10:09:47.940Z,7.70
2023-03-06T10:12:25.811Z,12.70
2023-03-06T10:15:16.683Z,14.48
2023-03-06T10:17:48.828Z,12.88
2023-03-06T10:20:26.959Z,8.07
2023-03-06T10:23:26.641Z,13.45
2023-03-06T10:26:03.816Z,17.15
2023-03-06T10:28:43.346Z,15.32
2023-03-06T10:31:22.134Z,10.10
2023-03-06T10:33:57.168Z,9.27
2023-03-06T10:36:30.848Z,14.30
2023-03-06T10:39:06.101Z,16.45
2023-03-06T10:41:38.451Z,10.07
2023-03-06T10:44:29.977Z,7.57
2023-03-06T10:47:01.045Z,13.38
2023-03-06T10:49:36.101Z,7.18
2023-03-06T10:52:23.075Z,11.93
2023-03-06T10:54:54.443Z,16.20
2023-03-06T10:57:29.990Z,9.20
2023-03-06T11:00:04.829Z,9.60
2023-03-06T11:02:38.774Z,9.82
2023-03-06T11:05:21.860Z,11.60
2023-03-06T11:08:00.615Z,16.23
2023-03-06T11:10:35.612Z,9.32
2023-03-06T11:13:20.671Z,10.90
2023-03-06T11:16:01.039Z,5.15
2023-03-06T11:18:38.352Z,8.40
2023-03-06T11:21:31.841Z,9.98
2023-03-06T11:24:16.276Z,8.57
2023-03-06T11:26:52.184Z,8.18
2023-03-06T11:29:43.448Z,13.10
2023-03-06T11:32:20.902Z,14.18
2023-03-06T11:34:56.593Z,13.35
2023-03-06T11:37:41.962Z,9.00
2023-03-06T11:40:23.972Z,7.38
2023-03-06T11:43:04.491Z,8.23
2023-03-06T11:45:43.883Z,14.40
2023-03-06T11:48:26.291Z,11.57
2023-03-06T11:51:06.611Z,8.23
2023-03-06T11:53:40.907Z,10.35
2023-03-06T11:56:33.013Z,9.68
2023-03-06T11:59:47.380Z,13.07
2023-03-06T12:02:34.731Z,19.10
2023-03-06T12:05:28.194Z,18.98
2023-03-06T12:08:16.352Z,18.15
2023-03-06T12:10:52.302Z,11.85
2023-03-06T12:16:49.255Z,11.40
2023-03-06T12:19:38.186Z,8.60
2023-03-06T12:22:39.871Z,10.93
2023-03-06T12:25:35.614Z,13.85
2023-03-06T12:28:37.141Z,12.57
2023-03-06T12:31:33.907Z,9.68
2023-03-06T12:34:21.775Z,16.05
2023-03-06T12:37:12.781Z,14.18
2023-03-06T12:40:29.400Z,14.55
2023-03-06T12:43:40.048Z,18.15
2023-03-06T12:46:18.167Z,18.05
2023-03-06T12:49:04.927Z,12.65
2023-03-06T12:51:39.864Z,11.85
2023-03-06T12:54:16.400Z,13.63
2023-03-06T12:56:51.329Z,9.02
2023-03-06T12:59:44.527Z,19.00
2023-03-06T13:03:05.824Z,16.45
2023-03-06T13:06:08.135Z,14.80
2023-03-06T13:09:25.339Z,5.65
2023-03-06T13:12:20.769Z,12.32
2023-03-06T13:14:59.403Z,9.85
2023-03-06T13:17:41.171Z,9.13
2023-03-06T13:20:39.919Z,12.00
2023-03-06T13:23:53.553Z,10.15
2023-03-06T13:26:52.993Z,8.75
2023-03-06T13:30:22.669Z,11.25
2023-03-06T13:32:55.011Z,8.77
2023-03-06T13:35:57.630Z,11.85
2023-03-06T13:38:36.879Z,11.63
2023-03-06T13:41:59.741Z,20.50
2023-03-06T13:44:51.202Z,21.27
2023-03-06T13:50:48.228Z,29.00
2023-03-06T13:54:02.841Z,14.40
2023-03-06T13:57:23.412Z,12.48
2023-03-06T14:00:48.381Z,27.30
2023-03-06T14:04:15.377Z,23.52
2023-03-06T14:07:20.326Z,23.33
2023-03-06T14:10:18.088Z,28.40
2023-03-06T14:13:04.530Z,31.58
2023-03-06T14:15:45.310Z,61.22
2023-03-06T14:18:21.801Z,60.22
2023-03-06T14:20:59.925Z,54.15
2023-03-06T14:23:35.660Z,49.03
2023-03-06T14:26:17.889Z,50.83
2023-03-06T14:28:58.746Z,61.20
2023-03-06T14:31:34.335Z,60.95
2023-03-06T14:34:08.265Z,54.47
2023-03-06T14:36:47.860Z,45.47
2023-03-06T14:39:24.381Z,40.55
2023-03-06T14:42:08.699Z,35.40
2023-03-06T14:44:39.856Z,32.22
2023-03-06T14:47:27.684Z,30.30
2023-03-06T14:50:24.571Z,27.50
2023-03-06T14:52:59.229Z,32.38
2023-03-06T14:55:34.502Z,27.33
2023-03-06T14:58:15.645Z,30.95
2023-03-06T15:00:51.325Z,35.33
2023-03-06T15:03:28.805Z,32.88
2023-03-06T15:05:59.961Z,29.95
2023-03-06T15:08:36.170Z,28.13
2023-03-06T15:11:08.864Z,26.40
2023-03-06T15:13:41.997Z,25.45
2023-03-06T15:16:30.362Z,23.70
2023-03-06T15:19:05.710Z,26.27
2023-03-06T15:21:39.413Z,27.70
2023-03-06T15:24:33.594Z,28.25
2023-03-06T15:27:06.517Z,24.45
2023-03-06T15:29:41.479Z,23.88
2023-03-06T15:32:29.519Z,28.25
2023-03-06T15:35:32.135Z,28.67
2023-03-06T15:38:04.327Z,31.67
2023-03-06T15:40:35.815Z,31.40
2023-03-06T15:43:12.524Z,41.05
2023-03-06T15:45:45.233Z,38.63
2023-03-06T15:48:19.589Z,50.33
2023-03-06T15:50:51.071Z,46.25
2023-03-06T15:53:21.860Z,52.63
2023-03-06T15:55:54.089Z,50.38
2023-03-06T15:58:26.960Z,49.80
2023-03-06T16:00:59.699Z,46.55
2023-03-06T16:03:30.694Z,47.33
2023-03-06T16:06:02.073Z,48.15
2023-03-06T16:08:33.127Z,50.45
2023-03-06T16:11:04.752Z,54.45
2023-03-06T16:13:36.291Z,55.42
2023-03-06T16:16:17.394Z,57.05
2023-03-06T16:18:48.350Z,60.58
2023-03-06T16:21:20.082Z,53.83
2023-03-06T16:23:50.907Z,51.83
2023-03-06T16:26:29.402Z,56.70
2023-03-06T16:29:00.407Z,48.80
2023-03-06T16:31:33.741Z,54.65
2023-03-06T16:34:04.654Z,55.35
2023-03-06T16:36:36.817Z,54.50
2023-03-06T16:39:13.244Z,61.63
2023-03-06T16:41:46.236Z,55.60
2023-03-06T16:44:17.734Z,66.57
2023-03-06T16:46:51.898Z,60.88
2023-03-06T16:49:26.598Z,58.72
2023-03-06T16:51:57.893Z,63.67
2023-03-06T16:54:28.834Z,62.08
2023-03-06T16:57:00.367Z,59.47
2023-03-06T16:59:32.909Z,73.75
2023-03-06T17:02:07.794Z,74.35
2023-03-06T17:04:39.721Z,64.43
2023-03-06T17:07:11.263Z,73.25
2023-03-06T17:09:41.957Z,77.25
2023-03-06T17:12:13.383Z,72.97
2023-03-06T17:14:45.583Z,82.15
2023-03-06T17:17:18.248Z,69.43
2023-03-06T17:19:49.833Z,76.53
2023-03-06T17:22:21.939Z,69.50
2023-03-06T17:24:52.951Z,79.35
2023-03-06T17:27:25.613Z,70.93
2023-03-06T17:29:59.400Z,71.85
2023-03-06T17:32:33.161Z,70.78
2023-03-06T17:37:35.552Z,73.97
2023-03-06T17:40:11.731Z,79.50
2023-03-06T17:42:43.510Z,75.90
2023-03-06T17:45:15.169Z,75.18
2023-03-06T17:47:49.176Z,74.47
2023-03-06T17:50:21.179Z,71.28
2023-03-06T17:52:52.497Z,64.25
2023-03-06T17:55:23.705Z,65.80
2023-03-06T17:57:55.248Z,58.65
2023-03-06T18:00:26.998Z,55.47
2023-03-06T18:03:00.446Z,53.90
2023-03-06T18:05:31.774Z,63.90
2023-03-06T18:08:03.796Z,78.63
2023-03-06T18:10:35.590Z,84.55
2023-03-06T18:13:07.764Z,84.77
2023-03-06T18:15:41.706Z,88.03
2023-03-06T18:18:17.438Z,98.03
2023-03-06T18:20:48.853Z,102.03
2023-03-06T18:23:20.346Z,103.70
2023-03-06T18:25:52.056Z,103.80
2023-03-06T18:28:23.697Z,106.13
2023-03-06T18:30:54.677Z,103.78
2023-03-06T18:33:28.051Z,89.13
2023-03-06T18:36:02.425Z,78.20
2023-03-06T18:38:34.443Z,75.80
2023-03-06T18:41:09.079Z,73.03
2023-03-06T18:43:41.553Z,60.25
2023-03-06T18:46:13.080Z,51.60
2023-03-06T18:48:46.778Z,61.53
2023-03-06T18:51:19.794Z,52.42
2023-03-06T18:53:51.591Z,63.65
2023-03-06T18:56:23.861Z,68.18
2023-03-06T18:58:55.333Z,76.53
2023-03-06T19:01:27.047Z,68.43
2023-03-06T19:04:02.481Z,68.55
2023-03-06T19:06:33.579Z,66.97
2023-03-06T19:09:05.031Z,103.85
2023-03-06T19:11:36.229Z,72.90
2023-03-06T19:14:07.833Z,70.85
2023-03-06T19:16:39.034Z,56.83
2023-03-06T19:19:11.877Z,64.80
2023-03-06T19:21:42.658Z,64.95
2023-03-06T19:24:14.334Z,66.85
2023-03-06T19:26:45.489Z,75.03
2023-03-06T19:29:16.909Z,104.57
2023-03-06T19:31:47.734Z,88.13
2023-03-06T19:34:20.675Z,72.13
2023-03-06T19:36:52.650Z,79.63
2023-03-06T19:39:24.514Z,92.90
2023-03-06T19:41:55.379Z,72.20
2023-03-06T19:44:26.649Z,63.72
2023-03-06T19:46:57.764Z,62.83
2023-03-06T19:49:30.492Z,56.63
2023-03-06T19:52:04.332Z,53.50
2023-03-06T19:54:35.459Z,57.80
2023-03-06T19:57:06.443Z,55.90
2023-03-06T19:59:37.716Z,56.17
2023-03-06T20:02:08.614Z,59.65
2023-03-06T20:04:41.477Z,64.30
2023-03-06T20:07:12.318Z,63.72
2023-03-06T20:09:43.650Z,58.38
2023-03-06T20:12:14.849Z,57.22
2023-03-06T20:14:47.503Z,62.15
2023-03-06T20:17:18.368Z,61.70
2023-03-06T20:19:51.043Z,66.75
2023-03-06T20:22:22.427Z,64.00
2023-03-06T20:24:54.345Z,66.93
2023-03-06T20:27:25.443Z,69.97
2023-03-06T20:29:57.203Z,71.50
2023-03-06T20:32:28.962Z,74.97
2023-03-06T20:35:02.587Z,76.53
2023-03-06T20:37:33.631Z,76.28
2023-03-06T20:40:06.525Z,66.28
2023-03-06T20:42:37.593Z,63.55
2023-03-06T20:45:10.990Z,59.72
2023-03-06T20:47:47.486Z,63.20
2023-03-06T20:50:20.862Z,47.28
2023-03-06T20:52:54.676Z,45.70
2023-03-06T20:55:26.713Z,41.53
2023-03-06T20:57:57.984Z,42.42
2023-03-06T21:00:29.626Z,37.15
2023-03-06T21:03:01.261Z,37.88
2023-03-06T21:05:34.736Z,36.95
2023-03-06T21:08:05.521Z,41.95
2023-03-06T21:10:38.677Z,32.67
2023-03-06T21:13:10.330Z,30.30
2023-03-06T21:15:43.591Z,42.20
2023-03-06T21:18:14.699Z,45.55
2023-03-06T21:20:47.711Z,43.28
2023-03-06T21:23:18.821Z,44.80
2023-03-06T21:25:50.970Z,41.78
2023-03-06T21:28:21.937Z,41.88
2023-03-06T21:30:53.616Z,47.25
2023-03-06T21:33:24.810Z,43.53
2023-03-06T21:35:58.160Z,43.70
2023-03-06T21:38:30.507Z,54.65
2023-03-06T21:41:10.434Z,52.10
2023-03-06T21:43:41.811Z,50.65
2023-03-06T21:46:14.485Z,52.65
2023-03-06T21:48:45.322Z,51.58
2023-03-06T21:51:20.938Z,50.88
2023-03-06T21:53:54.933Z,53.00
2023-03-06T21:56:28.556Z,60.60
2023-03-06T21:59:00.155Z,57.65
2023-03-06T22:01:31.996Z,60.75
2023-03-06T22:04:02.859Z,59.33
2023-03-06T22:06:35.727Z,59.95
2023-03-06T22:09:07.293Z,53.60
2023-03-06T22:11:40.010Z,54.55
2023-03-06T22:14:11.291Z,52.75
2023-03-06T22:16:43.033Z,53.55
2023-03-06T22:19:14.165Z,49.05
2023-03-06T22:21:47.082Z,45.72
2023-03-06T22:24:18.605Z,44.13
2023-03-06T22:26:50.155Z,41.13
2023-03-06T22:29:21.376Z,37.47
2023-03-06T22:31:53.416Z,37.20
2023-03-06T22:34:24.570Z,41.75
2023-03-06T22:36:57.633Z,35.92
2023-03-06T22:39:29.492Z,39.00
2023-03-06T22:42:01.538Z,41.63
2023-03-06T22:44:32.717Z,41.95
2023-03-06T22:47:04.062Z,44.40
2023-03-06T22:49:35.176Z,43.40
2023-03-06T22:52:09.211Z,45.08
2023-03-06T22:54:40.401Z,44.30
2023-03-06T22:57:11.703Z,46.65
2023-03-06T22:59:42.942Z,44.70
2023-03-06T23:02:14.408Z,54.17
2023-03-06T23:04:45.924Z,47.67
2023-03-06T23:07:19.494Z,38.47
2023-03-06T23:09:51.440Z,47.58
2023-03-06T23:12:44.203Z,42.15
2023-03-06T23:15:34.902Z,38.05
2023-03-06T23:18:25.004Z,46.05
2023-03-06T23:21:17.362Z,41.25
2023-03-06T23:24:09.513Z,52.65
2023-03-06T23:26:40.913Z,59.03
2023-03-06T23:29:12.694Z,59.10
2023-03-06T23:31:43.880Z,65.40
2023-03-06T23:34:15.033Z,70.18
2023-03-06T23:36:46.190Z,67.78
2023-03-06T23:39:19.066Z,71.68
2023-03-06T23:41:50.259Z,69.47
2023-03-06T23:44:21.682Z,73.90
2023-03-06T23:46:52.693Z,66.82
2023-03-06T23:49:24.167Z,65.03
2023-03-06T23:51:55.056Z,65.25
2023-03-06T23:54:27.627Z,65.57
2023-03-06T23:56:58.373Z,65.50
2023-03-06T23:59:29.479Z,75.05
